sensor_id;sensor_type;location;lat;lon;timestamp;pressure;altitude;pressure_sealevel;temperature;humidity
44839;BME280;30576;42.098;24.876;2023-05-01T00:00:19;99706.41;;;12.72;86.19
44839;BME280;30576;42.098;24.876;2023-05-01T00:03:12;99708.31;;;12.67;86.26
44839;BME280;30576;42.098;24.876;2023-05-01T00:05:38;99697.44;;;12.80;85.46
44839;BME280;30576;42.098;24.876;2023-05-01T00:08:05;99699.31;;;13.11;84.52
44839;BME280;30576;42.098;24.876;2023-05-01T00:10:31;99689.06;;;13.31;83.22
44839;BME280;30576;42.098;24.876;2023-05-01T00:13:00;99684.34;;;13.46;82.46
44839;BME280;30576;42.098;24.876;2023-05-01T00:15:27;99678.22;;;13.75;81.61
44839;BME280;30576;42.098;24.876;2023-05-01T00:17:53;99669.66;;;13.65;82.24
44839;BME280;30576;42.098;24.876;2023-05-01T00:20:20;99667.84;;;13.67;82.30
44839;BME280;30576;42.098;24.876;2023-05-01T00:22:47;99666.66;;;13.77;81.99
44839;BME280;30576;42.098;24.876;2023-05-01T00:25:12;99664.81;;;13.81;81.39
44839;BME280;30576;42.098;24.876;2023-05-01T00:27:38;99658.25;;;13.93;81.20
44839;BME280;30576;42.098;24.876;2023-05-01T00:30:04;99653.53;;;14.04;80.17
44839;BME280;30576;42.098;24.876;2023-05-01T00:32:31;99655.28;;;14.04;79.38
44839;BME280;30576;42.098;24.876;2023-05-01T00:34:58;99648.16;;;14.06;78.60
44839;BME280;30576;42.098;24.876;2023-05-01T00:37:23;99648.75;;;14.15;78.76
44839;BME280;30576;42.098;24.876;2023-05-01T00:39:50;99646.19;;;14.12;79.13
44839;BME280;30576;42.098;24.876;2023-05-01T00:42:21;99650.69;;;14.10;79.43
44839;BME280;30576;42.098;24.876;2023-05-01T00:44:52;99649.75;;;13.82;80.70
44839;BME280;30576;42.098;24.876;2023-05-01T00:47:23;99661.59;;;13.68;82.23
44839;BME280;30576;42.098;24.876;2023-05-01T00:49:53;99657.78;;;13.78;82.06
44839;BME280;30576;42.098;24.876;2023-05-01T00:52:19;99661.56;;;13.70;81.72
44839;BME280;30576;42.098;24.876;2023-05-01T00:54:44;99668.34;;;13.80;81.19
44839;BME280;30576;42.098;24.876;2023-05-01T00:57:16;99673.06;;;13.70;81.65
44839;BME280;30576;42.098;24.876;2023-05-01T00:59:42;99674.03;;;13.66;81.51
44839;BME280;30576;42.098;24.876;2023-05-01T01:02:09;99673.88;;;13.72;81.06
44839;BME280;30576;42.098;24.876;2023-05-01T01:04:38;99672.97;;;13.73;80.20
44839;BME280;30576;42.098;24.876;2023-05-01T01:12:11;99671.22;;;13.72;80.35
44839;BME280;30576;42.098;24.876;2023-05-01T01:15:01;99665.06;;;13.72;80.11
44839;BME280;30576;42.098;24.876;2023-05-01T01:17:52;99675.75;;;13.69;80.60
44839;BME280;30576;42.098;24.876;2023-05-01T01:31:59;99683.78;;;13.31;82.01
44839;BME280;30576;42.098;24.876;2023-05-01T01:34:26;99679.31;;;13.35;82.38
44839;BME280;30576;42.098;24.876;2023-05-01T01:40:11;99685.44;;;13.37;82.03
44839;BME280;30576;42.098;24.876;2023-05-01T01:42:50;99697.06;;;13.30;81.98
44839;BME280;30576;42.098;24.876;2023-05-01T01:45:33;99701.53;;;13.28;82.18
44839;BME280;30576;42.098;24.876;2023-05-01T01:48:00;99706.44;;;13.08;83.18
44839;BME280;30576;42.098;24.876;2023-05-01T01:50:27;99698.66;;;13.02;82.90
44839;BME280;30576;42.098;24.876;2023-05-01T01:52:54;99701.75;;;13.20;82.04
44839;BME280;30576;42.098;24.876;2023-05-01T01:55:24;99700.44;;;13.00;82.01
44839;BME280;30576;42.098;24.876;2023-05-01T01:57:53;99700.94;;;12.80;82.08
44839;BME280;30576;42.098;24.876;2023-05-01T02:00:20;99698.44;;;12.74;81.30
44839;BME280;30576;42.098;24.876;2023-05-01T02:02:46;99699.66;;;12.61;80.89
44839;BME280;30576;42.098;24.876;2023-05-01T02:05:14;99700.41;;;12.66;81.03
44839;BME280;30576;42.098;24.876;2023-05-01T02:07:40;99694.16;;;12.70;81.05
44839;BME280;30576;42.098;24.876;2023-05-01T02:10:07;99691.50;;;12.70;80.79
44839;BME280;30576;42.098;24.876;2023-05-01T02:12:34;99694.00;;;12.76;80.61
44839;BME280;30576;42.098;24.876;2023-05-01T02:15:00;99695.66;;;12.80;79.79
44839;BME280;30576;42.098;24.876;2023-05-01T02:17:26;99695.69;;;12.79;80.01
44839;BME280;30576;42.098;24.876;2023-05-01T02:20:03;99707.22;;;12.76;79.69
44839;BME280;30576;42.098;24.876;2023-05-01T02:22:49;99695.88;;;12.71;80.38
44839;BME280;30576;42.098;24.876;2023-05-01T02:31:30;99709.91;;;12.75;80.52
44839;BME280;30576;42.098;24.876;2023-05-01T02:34:00;99719.59;;;12.76;79.77
44839;BME280;30576;42.098;24.876;2023-05-01T02:36:28;99731.50;;;12.56;80.40
44839;BME280;30576;42.098;24.876;2023-05-01T02:38:55;99729.88;;;12.50;80.92
44839;BME280;30576;42.098;24.876;2023-05-01T02:41:23;99727.44;;;12.41;81.25
44839;BME280;30576;42.098;24.876;2023-05-01T02:43:52;99721.63;;;12.24;82.17
44839;BME280;30576;42.098;24.876;2023-05-01T02:46:19;99722.13;;;12.41;81.40
44839;BME280;30576;42.098;24.876;2023-05-01T02:48:51;99714.34;;;12.35;81.16
44839;BME280;30576;42.098;24.876;2023-05-01T02:51:17;99724.84;;;12.38;80.46
44839;BME280;30576;42.098;24.876;2023-05-01T02:53:44;99726.84;;;12.28;81.27
44839;BME280;30576;42.098;24.876;2023-05-01T02:56:10;99731.44;;;12.18;81.47
44839;BME280;30576;42.098;24.876;2023-05-01T02:58:36;99734.34;;;12.05;82.63
44839;BME280;30576;42.098;24.876;2023-05-01T03:01:02;99737.56;;;12.21;82.02
44839;BME280;30576;42.098;24.876;2023-05-01T03:03:27;99745.34;;;12.28;81.46
44839;BME280;30576;42.098;24.876;2023-05-01T03:05:54;99746.16;;;12.30;81.52
44839;BME280;30576;42.098;24.876;2023-05-01T03:08:19;99743.34;;;12.40;80.64
44839;BME280;30576;42.098;24.876;2023-05-01T03:10:45;99743.41;;;12.36;80.93
44839;BME280;30576;42.098;24.876;2023-05-01T03:13:10;99736.47;;;12.29;80.92
44839;BME280;30576;42.098;24.876;2023-05-01T03:15:39;99738.19;;;12.33;81.16
44839;BME280;30576;42.098;24.876;2023-05-01T03:18:04;99739.28;;;12.22;81.69
44839;BME280;30576;42.098;24.876;2023-05-01T03:20:30;99749.06;;;12.18;82.03
44839;BME280;30576;42.098;24.876;2023-05-01T03:22:55;99747.41;;;12.12;82.06
44839;BME280;30576;42.098;24.876;2023-05-01T03:25:21;99742.00;;;12.18;82.44
44839;BME280;30576;42.098;24.876;2023-05-01T03:27:46;99748.84;;;12.29;81.67
44839;BME280;30576;42.098;24.876;2023-05-01T03:30:15;99749.53;;;12.37;81.19
44839;BME280;30576;42.098;24.876;2023-05-01T03:32:43;99750.56;;;12.31;82.18
44839;BME280;30576;42.098;24.876;2023-05-01T03:35:11;99745.00;;;12.44;82.31
44839;BME280;30576;42.098;24.876;2023-05-01T03:37:39;99743.25;;;12.43;82.96
44839;BME280;30576;42.098;24.876;2023-05-01T03:40:10;99745.09;;;12.41;82.82
44839;BME280;30576;42.098;24.876;2023-05-01T03:43:02;99742.53;;;12.36;82.93
44839;BME280;30576;42.098;24.876;2023-05-01T03:45:39;99753.41;;;12.22;84.23
44839;BME280;30576;42.098;24.876;2023-05-01T03:48:25;99753.56;;;12.55;83.03
44839;BME280;30576;42.098;24.876;2023-05-01T03:54:03;99757.91;;;12.59;82.56
44839;BME280;30576;42.098;24.876;2023-05-01T03:56:38;99769.91;;;12.74;81.95
44839;BME280;30576;42.098;24.876;2023-05-01T03:59:17;99767.88;;;12.87;81.30
44839;BME280;30576;42.098;24.876;2023-05-01T04:01:48;99776.13;;;12.73;80.90
44839;BME280;30576;42.098;24.876;2023-05-01T04:04:35;99779.50;;;12.80;81.54
44839;BME280;30576;42.098;24.876;2023-05-01T04:07:09;99790.41;;;13.03;81.76
44839;BME280;30576;42.098;24.876;2023-05-01T04:12:31;99787.97;;;13.33;80.93
44839;BME280;30576;42.098;24.876;2023-05-01T04:14:56;99787.06;;;13.34;80.82
44839;BME280;30576;42.098;24.876;2023-05-01T04:17:22;99789.41;;;13.47;80.82
44839;BME280;30576;42.098;24.876;2023-05-01T04:19:47;99801.06;;;13.74;79.28
44839;BME280;30576;42.098;24.876;2023-05-01T04:22:13;99798.72;;;13.63;79.89
44839;BME280;30576;42.098;24.876;2023-05-01T04:24:38;99801.06;;;13.74;80.24
44839;BME280;30576;42.098;24.876;2023-05-01T04:27:11;99801.31;;;13.65;80.66
44839;BME280;30576;42.098;24.876;2023-05-01T04:29:37;99804.53;;;13.76;80.71
44839;BME280;30576;42.098;24.876;2023-05-01T04:32:02;99809.66;;;13.84;80.27
44839;BME280;30576;42.098;24.876;2023-05-01T04:34:30;99807.34;;;14.04;78.10
44839;BME280;30576;42.098;24.876;2023-05-01T04:36:58;99803.03;;;14.00;78.14
44839;BME280;30576;42.098;24.876;2023-05-01T04:39:27;99806.88;;;14.21;77.14
44839;BME280;30576;42.098;24.876;2023-05-01T04:41:53;99812.00;;;14.27;76.39
44839;BME280;30576;42.098;24.876;2023-05-01T04:44:18;99815.41;;;14.32;75.34
44839;BME280;30576;42.098;24.876;2023-05-01T04:46:44;99817.06;;;14.37;75.85
44839;BME280;30576;42.098;24.876;2023-05-01T04:49:10;99822.69;;;14.56;74.37
44839;BME280;30576;42.098;24.876;2023-05-01T04:51:35;99820.94;;;14.55;75.34
44839;BME280;30576;42.098;24.876;2023-05-01T04:54:03;99819.09;;;14.58;74.88
44839;BME280;30576;42.098;24.876;2023-05-01T04:56:31;99817.09;;;14.66;75.18
44839;BME280;30576;42.098;24.876;2023-05-01T05:02:29;99812.03;;;14.87;72.76
44839;BME280;30576;42.098;24.876;2023-05-01T05:07:32;99818.38;;;15.66;70.92
44839;BME280;30576;42.098;24.876;2023-05-01T05:09:59;99819.59;;;15.83;68.10
44839;BME280;30576;42.098;24.876;2023-05-01T05:12:24;99822.81;;;15.92;65.80
44839;BME280;30576;42.098;24.876;2023-05-01T05:14:55;99822.69;;;15.96;64.46
44839;BME280;30576;42.098;24.876;2023-05-01T05:17:26;99831.56;;;15.69;65.32
44839;BME280;30576;42.098;24.876;2023-05-01T05:19:51;99834.94;;;15.74;64.05
44839;BME280;30576;42.098;24.876;2023-05-01T05:22:17;99837.00;;;16.42;64.71
44839;BME280;30576;42.098;24.876;2023-05-01T05:24:51;99841.25;;;16.71;64.25
44839;BME280;30576;42.098;24.876;2023-05-01T05:27:37;99833.78;;;17.05;63.13
44839;BME280;30576;42.098;24.876;2023-05-01T05:30:03;99840.19;;;17.45;62.19
44839;BME280;30576;42.098;24.876;2023-05-01T05:32:29;99846.88;;;17.55;62.20
44839;BME280;30576;42.098;24.876;2023-05-01T05:34:56;99842.56;;;17.73;60.18
44839;BME280;30576;42.098;24.876;2023-05-01T05:37:22;99840.56;;;17.78;58.54
44839;BME280;30576;42.098;24.876;2023-05-01T05:39:50;99840.97;;;17.69;57.73
44839;BME280;30576;42.098;24.876;2023-05-01T05:42:22;99845.03;;;17.35;59.95
44839;BME280;30576;42.098;24.876;2023-05-01T05:44:47;99849.78;;;17.27;59.39
44839;BME280;30576;42.098;24.876;2023-05-01T05:47:13;99853.72;;;17.61;59.74
44839;BME280;30576;42.098;24.876;2023-05-01T05:52:42;99764.25;;;17.11;59.60
44839;BME280;30576;42.098;24.876;2023-05-01T05:55:39;99860.03;;;18.02;59.24
44839;BME280;30576;42.098;24.876;2023-05-01T05:58:11;99850.47;;;18.38;59.06
44839;BME280;30576;42.098;24.876;2023-05-01T06:00:44;99861.09;;;18.19;59.84
44839;BME280;30576;42.098;24.876;2023-05-01T06:03:11;99855.59;;;18.42;58.79
44839;BME280;30576;42.098;24.876;2023-05-01T06:05:39;99862.28;;;18.72;57.64
44839;BME280;30576;42.098;24.876;2023-05-01T06:08:07;99857.75;;;18.74;57.37
44839;BME280;30576;42.098;24.876;2023-05-01T06:10:34;99861.78;;;18.64;58.15
44839;BME280;30576;42.098;24.876;2023-05-01T06:13:00;99861.63;;;18.48;58.79
44839;BME280;30576;42.098;24.876;2023-05-01T06:15:26;99869.88;;;18.81;57.77
44839;BME280;30576;42.098;24.876;2023-05-01T06:17:51;99872.38;;;18.86;57.79
44839;BME280;30576;42.098;24.876;2023-05-01T06:20:16;99877.56;;;18.89;56.46
44839;BME280;30576;42.098;24.876;2023-05-01T06:22:43;99883.38;;;19.18;54.47
44839;BME280;30576;42.098;24.876;2023-05-01T06:25:09;99874.56;;;19.16;57.16
44839;BME280;30576;42.098;24.876;2023-05-01T06:27:35;99883.03;;;19.43;55.95
44839;BME280;30576;42.098;24.876;2023-05-01T06:30:00;99884.66;;;20.01;53.81
44839;BME280;30576;42.098;24.876;2023-05-01T06:32:29;99875.00;;;20.16;52.99
44839;BME280;30576;42.098;24.876;2023-05-01T06:34:57;99878.16;;;20.07;55.87
44839;BME280;30576;42.098;24.876;2023-05-01T06:37:26;99884.63;;;20.53;55.47
44839;BME280;30576;42.098;24.876;2023-05-01T06:39:56;99882.69;;;21.06;50.83
44839;BME280;30576;42.098;24.876;2023-05-01T06:45:16;99890.91;;;21.19;49.84
44839;BME280;30576;42.098;24.876;2023-05-01T06:47:41;99888.31;;;21.34;49.49
44839;BME280;30576;42.098;24.876;2023-05-01T06:50:06;99887.75;;;21.91;48.64
44839;BME280;30576;42.098;24.876;2023-05-01T06:52:32;99882.47;;;21.89;48.14
44839;BME280;30576;42.098;24.876;2023-05-01T06:54:57;99899.41;;;21.27;49.56
44839;BME280;30576;42.098;24.876;2023-05-01T06:57:23;99885.13;;;21.43;49.75
44839;BME280;30576;42.098;24.876;2023-05-01T06:59:57;99893.31;;;21.88;48.18
44839;BME280;30576;42.098;24.876;2023-05-01T07:02:28;99891.88;;;22.27;48.53
44839;BME280;30576;42.098;24.876;2023-05-01T07:08:08;99884.94;;;22.23;49.00
44839;BME280;30576;42.098;24.876;2023-05-01T07:10:34;99908.16;;;22.09;48.95
44839;BME280;30576;42.098;24.876;2023-05-01T07:13:06;99901.84;;;22.55;48.61
44839;BME280;30576;42.098;24.876;2023-05-01T07:15:31;99902.13;;;22.79;46.81
44839;BME280;30576;42.098;24.876;2023-05-01T07:18:13;99902.00;;;23.38;46.28
44839;BME280;30576;42.098;24.876;2023-05-01T07:20:41;99901.97;;;23.11;46.27
44839;BME280;30576;42.098;24.876;2023-05-01T07:23:07;99904.72;;;23.24;47.13
44839;BME280;30576;42.098;24.876;2023-05-01T07:25:34;99898.28;;;22.98;46.41
44839;BME280;30576;42.098;24.876;2023-05-01T07:28:01;99907.59;;;22.92;47.43
44839;BME280;30576;42.098;24.876;2023-05-01T07:30:28;99904.44;;;23.29;46.79
44839;BME280;30576;42.098;24.876;2023-05-01T07:32:54;99904.50;;;23.69;45.72
44839;BME280;30576;42.098;24.876;2023-05-01T07:35:21;99896.84;;;24.30;44.10
44839;BME280;30576;42.098;24.876;2023-05-01T07:37:48;99900.59;;;24.27;42.50
44839;BME280;30576;42.098;24.876;2023-05-01T07:40:15;99908.59;;;24.29;44.81
44839;BME280;30576;42.098;24.876;2023-05-01T07:42:40;99909.63;;;24.79;42.27
44839;BME280;30576;42.098;24.876;2023-05-01T07:45:06;99913.03;;;24.30;43.55
44839;BME280;30576;42.098;24.876;2023-05-01T07:47:32;99903.50;;;24.24;43.49
44839;BME280;30576;42.098;24.876;2023-05-01T07:49:57;99908.53;;;23.76;41.94
44839;BME280;30576;42.098;24.876;2023-05-01T07:52:22;99911.38;;;24.27;42.93
44839;BME280;30576;42.098;24.876;2023-05-01T07:54:48;99909.69;;;25.03;40.90
44839;BME280;30576;42.098;24.876;2023-05-01T07:57:14;99911.38;;;25.17;41.95
44839;BME280;30576;42.098;24.876;2023-05-01T07:59:40;99908.28;;;25.85;40.05
44839;BME280;30576;42.098;24.876;2023-05-01T08:02:05;99910.28;;;25.94;39.02
44839;BME280;30576;42.098;24.876;2023-05-01T08:04:31;99912.81;;;25.84;38.55
44839;BME280;30576;42.098;24.876;2023-05-01T08:06:56;99908.53;;;25.93;39.09
44839;BME280;30576;42.098;24.876;2023-05-01T08:09:22;99916.56;;;25.70;38.06
44839;BME280;30576;42.098;24.876;2023-05-01T08:11:47;99909.94;;;25.74;38.79
44839;BME280;30576;42.098;24.876;2023-05-01T08:14:12;99911.25;;;25.45;39.04
44839;BME280;30576;42.098;24.876;2023-05-01T08:16:38;99907.63;;;25.57;36.55
44839;BME280;30576;42.098;24.876;2023-05-01T08:19:03;99911.38;;;25.91;36.95
44839;BME280;30576;42.098;24.876;2023-05-01T08:21:28;99904.03;;;25.94;37.42
44839;BME280;30576;42.098;24.876;2023-05-01T08:23:54;99903.94;;;26.31;35.89
44839;BME280;30576;42.098;24.876;2023-05-01T08:26:19;99917.88;;;25.65;37.19
44839;BME280;30576;42.098;24.876;2023-05-01T08:28:45;99915.41;;;25.12;37.90
44839;BME280;30576;42.098;24.876;2023-05-01T08:31:10;99913.66;;;25.24;39.11
44839;BME280;30576;42.098;24.876;2023-05-01T08:33:36;99919.75;;;24.89;36.08
44839;BME280;30576;42.098;24.876;2023-05-01T08:36:01;99905.28;;;24.90;37.68
44839;BME280;30576;42.098;24.876;2023-05-01T08:38:26;99913.53;;;25.25;37.58
44839;BME280;30576;42.098;24.876;2023-05-01T08:40:52;99890.66;;;25.31;38.10
44839;BME280;30576;42.098;24.876;2023-05-01T08:43:18;99905.34;;;25.88;37.37
44839;BME280;30576;42.098;24.876;2023-05-01T08:45:44;99916.38;;;25.61;36.34
44839;BME280;30576;42.098;24.876;2023-05-01T08:48:11;99902.75;;;25.62;37.25
44839;BME280;30576;42.098;24.876;2023-05-01T08:50:37;99903.16;;;25.69;35.51
44839;BME280;30576;42.098;24.876;2023-05-01T08:53:05;99901.78;;;26.12;35.77
44839;BME280;30576;42.098;24.876;2023-05-01T08:55:33;99904.97;;;25.81;35.34
44839;BME280;30576;42.098;24.876;2023-05-01T08:57:59;99904.06;;;25.32;35.85
44839;BME280;30576;42.098;24.876;2023-05-01T09:00:37;99901.34;;;25.32;36.66
44839;BME280;30576;42.098;24.876;2023-05-01T09:03:03;99904.28;;;25.29;37.49
44839;BME280;30576;42.098;24.876;2023-05-01T09:05:32;99903.06;;;25.20;36.67
44839;BME280;30576;42.098;24.876;2023-05-01T09:07:58;99895.38;;;24.64;39.03
44839;BME280;30576;42.098;24.876;2023-05-01T09:10:23;99895.38;;;24.77;40.40
44839;BME280;30576;42.098;24.876;2023-05-01T09:12:56;99894.41;;;24.78;38.41
44839;BME280;30576;42.098;24.876;2023-05-01T09:15:31;99890.72;;;24.92;38.89
44839;BME280;30576;42.098;24.876;2023-05-01T09:17:58;99894.84;;;24.72;36.19
44839;BME280;30576;42.098;24.876;2023-05-01T09:20:24;99891.16;;;24.86;35.72
44839;BME280;30576;42.098;24.876;2023-05-01T09:22:56;99892.66;;;24.52;36.75
44839;BME280;30576;42.098;24.876;2023-05-01T09:25:21;99896.00;;;24.94;36.61
44839;BME280;30576;42.098;24.876;2023-05-01T09:27:47;99894.75;;;25.36;36.58
44839;BME280;30576;42.098;24.876;2023-05-01T09:33:14;99890.00;;;24.64;35.24
44839;BME280;30576;42.098;24.876;2023-05-01T09:35:55;99884.34;;;24.29;37.49
44839;BME280;30576;42.098;24.876;2023-05-01T09:38:24;99886.91;;;24.30;38.32
44839;BME280;30576;42.098;24.876;2023-05-01T09:40:50;99886.59;;;24.35;37.44
44839;BME280;30576;42.098;24.876;2023-05-01T09:43:23;99886.66;;;24.08;37.23
44839;BME280;30576;42.098;24.876;2023-05-01T09:45:59;99887.44;;;24.23;37.13
44839;BME280;30576;42.098;24.876;2023-05-01T09:48:25;99887.81;;;24.57;36.23
44839;BME280;30576;42.098;24.876;2023-05-01T09:50:50;99885.00;;;24.71;34.72
44839;BME280;30576;42.098;24.876;2023-05-01T09:56:18;99885.59;;;24.23;37.15
44839;BME280;30576;42.098;24.876;2023-05-01T09:58:44;99880.31;;;24.22;36.48
44839;BME280;30576;42.098;24.876;2023-05-01T10:01:13;99892.63;;;24.13;36.97
44839;BME280;30576;42.098;24.876;2023-05-01T10:03:39;99878.06;;;24.16;36.59
44839;BME280;30576;42.098;24.876;2023-05-01T10:06:09;99888.91;;;24.01;38.76
44839;BME280;30576;42.098;24.876;2023-05-01T10:11:11;99885.59;;;23.83;35.88
44839;BME280;30576;42.098;24.876;2023-05-01T10:13:36;99883.84;;;23.97;37.25
44839;BME280;30576;42.098;24.876;2023-05-01T10:16:01;99883.41;;;23.75;36.89
44839;BME280;30576;42.098;24.876;2023-05-01T10:18:32;99889.69;;;23.76;37.38
44839;BME280;30576;42.098;24.876;2023-05-01T10:20:57;99874.69;;;23.72;37.43
44839;BME280;30576;42.098;24.876;2023-05-01T10:23:24;99882.25;;;23.52;38.24
44839;BME280;30576;42.098;24.876;2023-05-01T10:25:51;99878.25;;;23.72;40.51
44839;BME280;30576;42.098;24.876;2023-05-01T10:28:22;99885.81;;;23.53;36.66
44839;BME280;30576;42.098;24.876;2023-05-01T10:30:49;99884.81;;;23.95;38.40
44839;BME280;30576;42.098;24.876;2023-05-01T10:33:15;99886.31;;;24.00;36.40
44839;BME280;30576;42.098;24.876;2023-05-01T10:35:59;99891.06;;;23.96;36.96
44839;BME280;30576;42.098;24.876;2023-05-01T10:44:23;99887.50;;;23.68;38.18
44839;BME280;30576;42.098;24.876;2023-05-01T10:46:51;99886.19;;;23.19;39.04
44839;BME280;30576;42.098;24.876;2023-05-01T10:52:20;99895.50;;;23.28;36.89
44839;BME280;30576;42.098;24.876;2023-05-01T10:54:51;99896.41;;;23.56;37.76
44839;BME280;30576;42.098;24.876;2023-05-01T10:57:46;99899.56;;;23.21;38.60
44839;BME280;30576;42.098;24.876;2023-05-01T11:00:11;99897.59;;;23.23;39.35
44839;BME280;30576;42.098;24.876;2023-05-01T11:02:37;99905.72;;;23.50;38.81
44839;BME280;30576;42.098;24.876;2023-05-01T11:05:03;99902.09;;;23.37;40.19
44839;BME280;30576;42.098;24.876;2023-05-01T11:07:28;99902.25;;;22.78;40.88
44839;BME280;30576;42.098;24.876;2023-05-01T11:09:55;99899.47;;;22.65;39.78
44839;BME280;30576;42.098;24.876;2023-05-01T11:12:57;99906.94;;;22.88;40.46
44839;BME280;30576;42.098;24.876;2023-05-01T11:15:25;99903.94;;;23.36;36.91
44839;BME280;30576;42.098;24.876;2023-05-01T11:17:51;99906.22;;;23.42;38.57
44839;BME280;30576;42.098;24.876;2023-05-01T11:22:51;99908.53;;;23.49;35.49
44839;BME280;30576;42.098;24.876;2023-05-01T11:25:18;99905.06;;;23.47;35.78
44839;BME280;30576;42.098;24.876;2023-05-01T11:27:51;99905.28;;;23.44;39.57
44839;BME280;30576;42.098;24.876;2023-05-01T11:30:17;99902.28;;;23.75;36.86
44839;BME280;30576;42.098;24.876;2023-05-01T11:32:43;99906.16;;;23.99;36.79
44839;BME280;30576;42.098;24.876;2023-05-01T11:35:19;99906.03;;;24.00;36.37
44839;BME280;30576;42.098;24.876;2023-05-01T11:37:45;99901.19;;;23.65;36.18
44839;BME280;30576;42.098;24.876;2023-05-01T11:40:26;99901.16;;;23.38;36.62
44839;BME280;30576;42.098;24.876;2023-05-01T11:43:02;99901.59;;;23.45;35.18
44839;BME280;30576;42.098;24.876;2023-05-01T11:45:28;99900.97;;;22.98;40.24
44839;BME280;30576;42.098;24.876;2023-05-01T11:47:53;99889.84;;;22.75;41.91
44839;BME280;30576;42.098;24.876;2023-05-01T11:50:18;99889.94;;;22.29;42.98
44839;BME280;30576;42.098;24.876;2023-05-01T11:55:12;99889.25;;;22.11;43.00
44839;BME280;30576;42.098;24.876;2023-05-01T11:57:44;99887.63;;;22.39;42.86
44839;BME280;30576;42.098;24.876;2023-05-01T12:00:10;99883.41;;;22.92;41.90
44839;BME280;30576;42.098;24.876;2023-05-01T12:02:36;99888.38;;;22.55;41.62
44839;BME280;30576;42.098;24.876;2023-05-01T12:05:16;99884.75;;;22.42;41.44
44839;BME280;30576;42.098;24.876;2023-05-01T12:07:42;99882.75;;;22.74;43.36
44839;BME280;30576;42.098;24.876;2023-05-01T12:10:07;99883.91;;;22.99;41.86
44839;BME280;30576;42.098;24.876;2023-05-01T12:12:33;99877.03;;;23.07;40.06
44839;BME280;30576;42.098;24.876;2023-05-01T12:14:58;99880.03;;;22.88;39.47
44839;BME280;30576;42.098;24.876;2023-05-01T12:17:24;99878.72;;;22.96;41.13
44839;BME280;30576;42.098;24.876;2023-05-01T12:19:49;99884.94;;;22.96;40.15
44839;BME280;30576;42.098;24.876;2023-05-01T12:22:15;99882.25;;;23.11;37.86
44839;BME280;30576;42.098;24.876;2023-05-01T12:24:50;99881.97;;;22.72;39.00
44839;BME280;30576;42.098;24.876;2023-05-01T12:27:16;99887.03;;;23.05;40.08
44839;BME280;30576;42.098;24.876;2023-05-01T12:29:42;99871.44;;;23.39;38.51
44839;BME280;30576;42.098;24.876;2023-05-01T12:32:11;99874.38;;;23.49;39.31
44839;BME280;30576;42.098;24.876;2023-05-01T12:34:36;99874.53;;;23.33;37.22
44839;BME280;30576;42.098;24.876;2023-05-01T12:37:02;99877.91;;;23.64;37.92
44839;BME280;30576;42.098;24.876;2023-05-01T12:39:34;99879.66;;;23.78;39.74
44839;BME280;30576;42.098;24.876;2023-05-01T12:42:02;99874.28;;;23.78;37.23
44839;BME280;30576;42.098;24.876;2023-05-01T12:44:27;99883.47;;;23.34;37.00
44839;BME280;30576;42.098;24.876;2023-05-01T12:47:07;99884.94;;;23.25;36.79
44839;BME280;30576;42.098;24.876;2023-05-01T12:49:36;99889.09;;;23.16;37.90
44839;BME280;30576;42.098;24.876;2023-05-01T12:52:02;99889.09;;;23.16;38.58
44839;BME280;30576;42.098;24.876;2023-05-01T12:54:35;99889.63;;;23.36;38.18
44839;BME280;30576;42.098;24.876;2023-05-01T12:57:11;99879.81;;;23.35;37.98
44839;BME280;30576;42.098;24.876;2023-05-01T12:59:39;99882.75;;;22.74;38.49
44839;BME280;30576;42.098;24.876;2023-05-01T13:02:08;99879.66;;;22.51;38.82
44839;BME280;30576;42.098;24.876;2023-05-01T13:04:37;99884.66;;;22.86;39.30
44839;BME280;30576;42.098;24.876;2023-05-01T13:07:09;99881.09;;;23.00;38.00
44839;BME280;30576;42.098;24.876;2023-05-01T13:09:35;99873.69;;;23.04;37.51
44839;BME280;30576;42.098;24.876;2023-05-01T13:12:02;99872.78;;;23.47;38.00
44839;BME280;30576;42.098;24.876;2023-05-01T13:14:34;99883.16;;;23.38;36.32
44839;BME280;30576;42.098;24.876;2023-05-01T13:16:59;99871.44;;;23.39;36.99
44839;BME280;30576;42.098;24.876;2023-05-01T13:21:56;99871.44;;;23.39;35.33
44839;BME280;30576;42.098;24.876;2023-05-01T13:24:22;99873.16;;;23.68;36.43
44839;BME280;30576;42.098;24.876;2023-05-01T13:26:54;99866.38;;;23.62;36.25
44839;BME280;30576;42.098;24.876;2023-05-01T13:29:20;99872.53;;;23.77;35.05
44839;BME280;30576;42.098;24.876;2023-05-01T13:31:47;99873.47;;;23.90;34.30
44839;BME280;30576;42.098;24.876;2023-05-01T13:34:13;99870.50;;;24.08;37.18
44839;BME280;30576;42.098;24.876;2023-05-01T13:36:41;99874.59;;;23.73;34.61
44839;BME280;30576;42.098;24.876;2023-05-01T13:39:09;99869.63;;;23.67;35.51
44839;BME280;30576;42.098;24.876;2023-05-01T13:41:35;99874.75;;;23.85;33.91
44839;BME280;30576;42.098;24.876;2023-05-01T13:44:06;99880.41;;;23.94;32.89
44839;BME280;30576;42.098;24.876;2023-05-01T13:46:31;99880.97;;;24.12;33.86
44839;BME280;30576;42.098;24.876;2023-05-01T13:48:57;99878.63;;;24.34;33.61
44839;BME280;30576;42.098;24.876;2023-05-01T13:51:27;99869.88;;;24.56;32.55
44839;BME280;30576;42.098;24.876;2023-05-01T13:53:53;99881.88;;;24.90;33.96
44839;BME280;30576;42.098;24.876;2023-05-01T13:56:20;99878.22;;;24.78;33.16
44839;BME280;30576;42.098;24.876;2023-05-01T13:58:45;99876.03;;;24.83;33.26
44839;BME280;30576;42.098;24.876;2023-05-01T14:01:18;99873.16;;;24.74;33.71
44839;BME280;30576;42.098;24.876;2023-05-01T14:03:44;99874.84;;;24.49;34.49
44839;BME280;30576;42.098;24.876;2023-05-01T14:06:09;99878.13;;;23.74;34.58
44839;BME280;30576;42.098;24.876;2023-05-01T14:08:35;99872.84;;;23.87;35.68